Time;durP1;ratioP1;P1;durP2;ratioP2;P2;SDS_P1;SDS_P2;PMS_P1;PMS_P2;Temp;Humidity;BMP_temperature;BMP_pressure;BME280_temperature;BME280_humidity;BME280_pressure;Samples;Min_cycle;Max_cycle;Signal;HPM_P1;HPM_P2
2020/12/06 00:01:26;;;;;;;19.17;10.93;;;;;;;1.20;85.58;100199.06;5068565;28;20041;-70
2020/12/06 00:03:52;;;;;;;16.83;11.73;;;;;;;1.21;85.02;100212.09;5066215;28;20620;-69
2020/12/06 00:06:23;;;;;;;18.38;11.80;;;;;;;1.25;85.29;100220.59;5068556;28;20044;-69
2020/12/06 00:08:52;;;;;;;16.65;11.35;;;;;;;1.22;85.32;100216.41;5064761;28;20068;-69
2020/12/06 00:11:18;;;;;;;14.55;11.00;;;;;;;1.17;85.56;100218.50;5066940;28;20090;-69
2020/12/06 00:13:43;;;;;;;18.75;11.35;;;;;;;1.14;85.27;100212.63;5068234;28;20452;-69
2020/12/06 00:16:13;;;;;;;16.70;11.88;;;;;;;1.16;85.11;100229.13;5067883;28;20036;-68
2020/12/06 00:18:39;;;;;;;14.73;10.30;;;;;;;1.18;84.85;100229.88;5063017;28;20071;-69
2020/12/06 00:21:05;;;;;;;15.55;11.07;;;;;;;1.13;85.06;100235.47;5047513;28;20041;-68
2020/12/06 00:23:31;;;;;;;14.45;11.65;;;;;;;1.14;85.00;100238.91;5065993;28;20076;-69
2020/12/06 00:25:56;;;;;;;18.45;12.30;;;;;;;1.08;84.73;100244.63;5067106;28;20083;-69
2020/12/06 00:28:21;;;;;;;16.52;11.05;;;;;;;1.01;85.71;100231.88;5066506;28;20064;-69
2020/12/06 00:30:47;;;;;;;17.52;11.88;;;;;;;0.83;85.18;100206.88;5067217;28;20063;-69
2020/12/06 00:33:12;;;;;;;15.18;12.13;;;;;;;0.96;85.75;100227.91;5083551;28;20040;-69
2020/12/06 00:35:38;;;;;;;18.48;12.82;;;;;;;0.92;85.48;100214.13;5065541;28;20119;-69
2020/12/06 00:38:04;;;;;;;16.42;12.10;;;;;;;0.81;86.00;100185.16;5066719;28;20036;-69
2020/12/06 00:40:29;;;;;;;21.90;12.13;;;;;;;0.95;86.17;100198.13;5054234;28;20431;-69
2020/12/06 00:42:54;;;;;;;19.20;13.52;;;;;;;0.93;86.62;100193.94;5065417;28;20036;-69
2020/12/06 00:45:20;;;;;;;16.45;12.50;;;;;;;0.91;86.76;100194.91;5065554;28;20505;-69
2020/12/06 00:47:45;;;;;;;18.92;13.05;;;;;;;0.97;86.26;100191.00;5065300;28;20040;-70
2020/12/06 00:50:11;;;;;;;17.20;13.35;;;;;;;0.95;86.22;100192.88;5064654;28;20052;-70
2020/12/06 00:52:36;;;;;;;21.38;13.98;;;;;;;0.95;87.06;100202.56;5067019;28;20048;-69
2020/12/06 00:55:02;;;;;;;18.90;14.70;;;;;;;0.90;87.34;100201.09;5065936;28;20078;-69
2020/12/06 00:57:27;;;;;;;17.35;13.35;;;;;;;0.88;87.93;100210.88;5065533;28;20645;-68
2020/12/06 00:59:53;;;;;;;19.90;14.20;;;;;;;0.87;87.57;100218.84;5062601;28;20040;-69
2020/12/06 01:02:18;;;;;;;20.42;14.82;;;;;;;0.76;87.76;100201.19;5067584;28;20114;-69
2020/12/06 01:04:44;;;;;;;18.98;14.10;;;;;;;0.50;88.11;100156.56;5064164;28;20049;-72
2020/12/06 01:07:10;;;;;;;21.88;14.73;;;;;;;0.63;88.25;100177.59;5059787;28;20064;-69
2020/12/06 01:09:35;;;;;;;23.00;14.68;;;;;;;0.75;88.65;100194.25;5060812;28;20159;-69
2020/12/06 01:12:01;;;;;;;18.88;14.30;;;;;;;0.60;88.42;100177.78;5066775;28;20514;-69
2020/12/06 01:14:26;;;;;;;19.58;15.32;;;;;;;0.78;87.81;100195.88;5063878;28;20044;-68
2020/12/06 01:16:52;;;;;;;24.20;15.43;;;;;;;0.54;87.75;100163.28;5067727;28;20028;-69
2020/12/06 01:19:18;;;;;;;19.80;14.98;;;;;;;0.78;88.28;100207.19;5046680;28;20036;-70
2020/12/06 01:22:01;;;;;;;21.80;15.90;;;;;;;0.73;88.79;100217.19;5065722;28;20089;-70
2020/12/06 01:24:27;;;;;;;21.58;15.00;;;;;;;0.71;89.59;100219.09;5062876;28;20064;-70
2020/12/06 01:26:52;;;;;;;19.67;15.73;;;;;;;0.74;89.29;100224.13;5065136;28;20406;-69
2020/12/06 01:29:18;;;;;;;22.33;16.27;;;;;;;0.56;89.43;100195.53;5080404;28;20032;-68
2020/12/06 01:31:47;;;;;;;23.73;16.00;;;;;;;0.63;88.96;100206.47;5065706;28;20044;-69
2020/12/06 01:34:13;;;;;;;21.30;16.55;;;;;;;0.68;89.80;100214.84;5047770;28;20048;-69
2020/12/06 01:36:39;;;;;;;27.42;18.13;;;;;;;0.45;89.66;100163.94;5066918;28;20045;-69
2020/12/06 01:39:04;;;;;;;24.13;16.60;;;;;;;0.72;89.46;100186.63;5065527;28;20032;-70
2020/12/06 01:41:30;;;;;;;23.20;17.63;;;;;;;0.75;89.83;100186.38;5049219;28;20052;-69
2020/12/06 01:43:56;;;;;;;21.38;16.77;;;;;;;0.86;88.79;100193.53;5062052;28;20087;-70
2020/12/06 01:46:22;;;;;;;24.50;17.63;;;;;;;0.69;89.08;100173.69;5066429;28;20043;-72
2020/12/06 01:48:48;;;;;;;25.08;17.35;;;;;;;0.82;89.77;100208.69;5056809;28;20044;-70
2020/12/06 01:51:15;;;;;;;22.58;16.67;;;;;;;0.83;89.36;100204.25;5065004;28;20035;-70
2020/12/06 01:53:40;;;;;;;24.52;16.33;;;;;;;0.78;89.19;100215.06;5065173;28;20042;-71
2020/12/06 01:56:06;;;;;;;25.48;17.52;;;;;;;0.69;89.41;100199.97;5065966;28;20473;-71
2020/12/06 01:58:32;;;;;;;24.88;16.70;;;;;;;0.84;89.44;100229.56;5056277;28;20021;-71
2020/12/06 02:00:57;;;;;;;22.98;16.95;;;;;;;0.85;89.26;100228.63;5063389;28;20324;-71
2020/12/06 02:03:23;;;;;;;24.92;17.17;;;;;;;0.87;89.09;100229.38;5065119;28;20032;-70
2020/12/06 02:05:48;;;;;;;23.23;16.50;;;;;;;0.91;88.72;100234.31;5046831;28;20041;-70
2020/12/06 02:08:14;;;;;;;25.15;16.77;;;;;;;0.92;88.63;100232.53;5035960;28;20036;-70
2020/12/06 02:10:39;;;;;;;24.67;16.73;;;;;;;0.90;88.76;100243.13;5066104;28;20530;-70
2020/12/06 02:13:05;;;;;;;22.52;16.05;;;;;;;0.87;88.18;100238.09;5080904;28;20044;-70
2020/12/06 02:15:30;;;;;;;26.70;17.85;;;;;;;0.75;88.89;100229.28;5058762;28;20419;-68
2020/12/06 02:17:56;;;;;;;28.77;17.55;;;;;;;0.82;88.85;100241.97;5064006;28;20032;-69
2020/12/06 02:20:21;;;;;;;25.05;17.45;;;;;;;0.76;88.83;100245.84;5063253;28;20044;-70
2020/12/06 02:22:47;;;;;;;24.25;17.33;;;;;;;0.74;89.34;100238.09;5063220;28;20057;-70
2020/12/06 02:25:12;;;;;;;25.27;18.10;;;;;;;0.70;89.03;100222.66;5061853;28;20041;-70
2020/12/06 02:27:38;;;;;;;22.73;17.08;;;;;;;0.59;89.10;100224.22;5063684;28;20044;-70
2020/12/06 02:30:04;;;;;;;27.10;18.40;;;;;;;0.72;89.64;100241.78;5065139;28;20036;-69
2020/12/06 02:32:29;;;;;;;24.30;17.38;;;;;;;0.71;89.82;100247.97;5061678;28;20040;-70
2020/12/06 02:34:55;;;;;;;26.42;19.13;;;;;;;0.70;90.04;100246.28;5066828;28;20029;-69
2020/12/06 02:37:20;;;;;;;27.77;19.50;;;;;;;0.70;90.80;100241.88;5062841;28;20040;-68
2020/12/06 02:39:46;;;;;;;26.85;19.98;;;;;;;0.67;90.16;100235.97;5059474;28;20498;-68
2020/12/06 02:42:11;;;;;;;31.63;20.25;;;;;;;0.72;90.25;100241.78;5064718;28;20047;-68
2020/12/06 02:44:37;;;;;;;30.38;20.30;;;;;;;0.74;90.25;100242.50;5063637;28;20028;-68
2020/12/06 02:47:02;;;;;;;26.85;19.90;;;;;;;0.75;90.66;100237.16;5064725;28;20025;-69
2020/12/06 02:49:28;;;;;;;31.33;20.98;;;;;;;0.76;90.48;100236.22;5062664;28;20045;-69
2020/12/06 02:51:53;;;;;;;28.05;20.60;;;;;;;0.76;90.19;100237.97;5064813;28;20090;-70
2020/12/06 02:54:19;;;;;;;30.63;21.10;;;;;;;0.73;90.71;100235.59;5064233;28;20261;-70
2020/12/06 02:56:44;;;;;;;30.17;21.92;;;;;;;0.78;90.21;100237.88;5064658;28;20067;-70
2020/12/06 02:59:10;;;;;;;29.98;21.27;;;;;;;0.82;90.60;100234.09;5063569;28;20142;-70
2020/12/06 03:01:35;;;;;;;32.20;21.13;;;;;;;0.83;90.38;100226.13;5064155;28;20552;-70
2020/12/06 03:04:01;;;;;;;32.25;21.58;;;;;;;0.72;89.87;100211.09;5063397;28;20049;-70
2020/12/06 03:06:26;;;;;;;31.02;21.17;;;;;;;0.82;89.97;100227.06;5064212;28;20039;-72
2020/12/06 03:08:52;;;;;;;28.55;19.77;;;;;;;0.81;90.26;100228.00;5060119;28;20044;-70
2020/12/06 03:11:17;;;;;;;30.85;22.20;;;;;;;0.83;90.44;100222.63;5065237;28;20044;-70
2020/12/06 03:13:43;;;;;;;35.65;22.50;;;;;;;0.83;90.44;100228.75;5061753;28;20028;-69
2020/12/06 03:16:08;;;;;;;28.88;21.05;;;;;;;0.69;90.25;100205.22;5062434;28;20047;-70
2020/12/06 03:18:34;;;;;;;29.58;21.27;;;;;;;0.84;89.54;100226.94;5046976;28;20032;-70
2020/12/06 03:21:00;;;;;;;33.67;22.08;;;;;;;0.87;89.69;100227.59;5063927;28;20036;-70
2020/12/06 03:23:26;;;;;;;31.30;21.75;;;;;;;0.89;89.62;100222.22;5062612;28;20095;-70
2020/12/06 03:25:51;;;;;;;30.90;22.08;;;;;;;0.87;89.97;100221.50;5045294;28;20029;-70
2020/12/06 03:28:17;;;;;;;32.83;22.00;;;;;;;0.87;89.87;100227.59;5066497;28;20414;-70
2020/12/06 03:30:42;;;;;;;32.28;22.15;;;;;;;0.91;89.87;100229.03;5067254;28;20043;-70
2020/12/06 03:33:08;;;;;;;29.42;21.25;;;;;;;0.95;89.48;100226.22;5067532;28;20032;-70
2020/12/06 03:35:33;;;;;;;31.52;22.30;;;;;;;0.94;89.78;100224.53;5069217;28;20021;-70
2020/12/06 03:37:59;;;;;;;30.67;22.17;;;;;;;0.75;89.98;100210.88;5066634;28;20060;-70
2020/12/06 03:40:24;;;;;;;33.13;22.30;;;;;;;0.86;90.37;100232.94;5084738;28;20040;-70
2020/12/06 03:42:50;;;;;;;34.22;22.90;;;;;;;0.86;90.56;100231.16;5068056;28;20534;-70
2020/12/06 03:45:16;;;;;;;32.85;24.10;;;;;;;0.85;90.75;100229.50;5084454;28;20039;-70
2020/12/06 03:47:42;;;;;;;35.67;23.98;;;;;;;0.69;90.75;100208.66;5082433;28;20040;-70
2020/12/06 03:50:07;;;;;;;34.03;23.48;;;;;;;0.78;90.52;100222.97;5067416;28;20040;-70
2020/12/06 03:52:33;;;;;;;29.63;21.85;;;;;;;0.73;90.50;100219.81;5065261;28;20552;-70
2020/12/06 03:54:58;;;;;;;35.03;22.67;;;;;;;0.69;90.61;100223.59;5067638;28;20025;-70
2020/12/06 03:57:24;;;;;;;35.33;24.30;;;;;;;0.65;91.39;100220.34;5067847;28;20032;-70
2020/12/06 03:59:49;;;;;;;33.13;23.15;;;;;;;0.61;91.30;100224.13;5066643;28;20029;-70
2020/12/06 04:02:15;;;;;;;34.17;23.25;;;;;;;0.58;91.28;100221.69;5069034;28;20032;-69
2020/12/06 04:04:41;;;;;;;35.90;24.02;;;;;;;0.52;90.99;100222.13;5067509;28;20056;-69
2020/12/06 04:07:06;;;;;;;35.53;23.25;;;;;;;0.49;91.13;100223.16;5066355;28;20111;-70
2020/12/06 04:09:32;;;;;;;33.55;22.95;;;;;;;0.41;91.17;100223.66;5063095;28;20067;-70
2020/12/06 04:11:57;;;;;;;32.55;23.13;;;;;;;0.12;91.11;100176.59;5067022;28;20033;-71
2020/12/06 04:14:23;;;;;;;33.28;22.77;;;;;;;0.32;91.88;100223.47;5062542;28;20044;-69
2020/12/06 04:16:48;;;;;;;35.17;23.13;;;;;;;0.29;91.40;100227.97;5039535;28;20071;-71
2020/12/06 04:19:13;;;;;;;36.03;22.95;;;;;;;0.25;91.91;100223.03;5060734;28;20032;-70
2020/12/06 04:21:39;;;;;;;31.23;22.08;;;;;;;0.11;91.43;100214.28;5065098;28;20273;-71
2020/12/06 04:24:04;;;;;;;34.45;23.58;;;;;;;0.17;91.94;100228.78;5064055;28;20048;-71
2020/12/06 04:26:30;;;;;;;34.15;21.60;;;;;;;0.12;91.54;100230.84;5061901;28;20036;-70
2020/12/06 04:28:57;;;;;;;35.42;22.42;;;;;;;0.10;91.40;100233.59;5054346;28;20523;-67
2020/12/06 04:31:23;;;;;;;37.63;22.75;;;;;;;0.04;91.51;100233.97;5065759;28;20040;-69
2020/12/06 04:33:49;;;;;;;31.85;21.23;;;;;;;-0.02;91.06;100244.88;5065697;28;20044;-70
2020/12/06 04:36:14;;;;;;;34.58;23.15;;;;;;;-0.06;91.58;100244.22;5066481;28;20037;-69
2020/12/06 04:38:40;;;;;;;35.95;23.85;;;;;;;-0.10;91.59;100248.00;5061440;28;20028;-70
2020/12/06 04:41:05;;;;;;;35.45;22.73;;;;;;;-0.27;91.58;100222.84;5064173;28;20133;-69
2020/12/06 04:43:30;;;;;;;35.40;21.98;;;;;;;-0.64;91.51;100175.38;5066581;28;20028;-69
2020/12/06 04:45:56;;;;;;;36.63;23.23;;;;;;;-0.23;91.96;100247.09;5063586;28;20271;-69
2020/12/06 04:48:39;;;;;;;34.80;23.60;;;;;;;-0.29;92.49;100232.59;5057723;28;20044;-70
2020/12/06 04:51:05;;;;;;;34.92;23.85;;;;;;;-0.47;92.47;100209.22;5046434;28;20511;-69
2020/12/06 04:53:40;;;;;;;37.55;24.38;;;;;;;-0.30;92.68;100238.78;5065937;28;20031;-69
2020/12/06 04:56:08;;;;;;;36.35;23.83;;;;;;;-0.33;92.34;100245.03;5039732;28;20123;-69
2020/12/06 04:58:34;;;;;;;35.83;24.60;;;;;;;-0.34;92.50;100242.53;5037462;28;20047;-70
2020/12/06 05:00:59;;;;;;;38.35;24.83;;;;;;;-0.35;92.86;100239.09;5045381;28;20301;-69
2020/12/06 05:03:25;;;;;;;37.45;25.60;;;;;;;-0.36;93.09;100242.63;5061860;28;20032;-68
2020/12/06 05:05:50;;;;;;;42.60;26.38;;;;;;;-0.36;92.88;100240.03;5032534;28;20032;-69
2020/12/06 05:08:16;;;;;;;39.50;26.00;;;;;;;-0.35;92.87;100236.47;5058782;28;20078;-68
2020/12/06 05:10:46;;;;;;;37.63;25.50;;;;;;;-0.53;92.51;100200.91;5039695;28;20035;-69
2020/12/06 05:13:14;;;;;;;39.95;25.70;;;;;;;-0.29;93.04;100242.22;5061147;28;20358;-70
2020/12/06 05:15:41;;;;;;;36.22;24.38;;;;;;;-0.32;92.55;100251.97;5062286;28;20509;-68
2020/12/06 05:18:06;;;;;;;40.05;25.45;;;;;;;-0.29;92.43;100239.63;5059033;28;20041;-68
2020/12/06 05:20:32;;;;;;;34.30;24.40;;;;;;;-0.31;91.80;100234.47;5057749;28;20055;-69
2020/12/06 05:22:58;;;;;;;37.95;25.40;;;;;;;-0.31;92.38;100234.47;5068871;28;20055;-68
2020/12/06 05:25:23;;;;;;;37.38;26.50;;;;;;;-0.31;92.69;100229.22;5064376;28;20044;-68
2020/12/06 05:27:49;;;;;;;38.25;26.60;;;;;;;-0.32;92.27;100224.94;5068603;28;20037;-69
2020/12/06 05:30:15;;;;;;;37.33;25.73;;;;;;;-0.33;92.84;100233.72;5064111;28;20028;-69
2020/12/06 05:32:40;;;;;;;39.65;26.55;;;;;;;-0.32;92.48;100238.03;5062280;28;20032;-69
2020/12/06 05:35:07;;;;;;;37.28;24.92;;;;;;;-0.32;92.46;100225.75;5063164;28;20024;-69
2020/12/06 05:37:37;;;;;;;39.30;26.83;;;;;;;-0.33;92.20;100231.94;5070184;28;20069;-69
2020/12/06 05:40:07;;;;;;;42.83;26.88;;;;;;;-0.27;92.51;100235.94;5051412;28;20233;-69
2020/12/06 05:42:37;;;;;;;40.25;26.00;;;;;;;-0.25;92.45;100246.34;5061334;28;20048;-69
2020/12/06 05:45:03;;;;;;;35.60;25.33;;;;;;;-0.23;92.51;100241.84;5061277;28;20029;-69
2020/12/06 05:47:29;;;;;;;39.67;26.25;;;;;;;-0.18;92.60;100253.72;5052873;28;20568;-69
2020/12/06 05:49:55;;;;;;;39.13;27.42;;;;;;;-0.18;92.08;100245.00;5059833;28;20040;-69
2020/12/06 05:52:21;;;;;;;37.40;27.02;;;;;;;-0.14;92.41;100251.75;5060304;28;20032;-69
2020/12/06 05:54:47;;;;;;;38.65;25.65;;;;;;;-0.12;92.58;100244.63;5061565;28;20510;-70
2020/12/06 05:57:13;;;;;;;39.15;27.30;;;;;;;-0.19;92.13;100233.69;5060532;28;20222;-69
2020/12/06 05:59:39;;;;;;;36.33;26.05;;;;;;;-0.21;91.91;100219.84;5059028;28;20067;-69
2020/12/06 06:02:04;;;;;;;36.88;25.92;;;;;;;-0.07;92.37;100239.91;5035031;28;20021;-69
2020/12/06 06:04:30;;;;;;;38.47;26.48;;;;;;;-0.04;92.18;100241.50;5039707;28;20475;-69
2020/12/06 06:06:56;;;;;;;41.15;27.45;;;;;;;-0.06;91.60;100244.22;5045589;28;20039;-69
2020/12/06 06:09:22;;;;;;;38.40;25.80;;;;;;;-0.08;91.55;100256.63;5056995;28;20111;-69
2020/12/06 06:11:55;;;;;;;39.30;26.70;;;;;;;-0.07;91.68;100258.28;5042379;28;20052;-69
2020/12/06 06:14:21;;;;;;;37.92;25.00;;;;;;;-0.06;91.56;100251.25;5062278;28;20467;-69
2020/12/06 06:16:46;;;;;;;37.30;24.88;;;;;;;-0.06;91.08;100246.84;5020059;28;20036;-69
2020/12/06 06:19:12;;;;;;;37.55;25.25;;;;;;;-0.09;91.30;100247.06;5048837;28;20036;-69
2020/12/06 06:21:38;;;;;;;35.00;25.05;;;;;;;-0.16;nan;100232.66;5060930;28;20055;-69
2020/12/06 06:24:10;;;;;;;36.85;25.42;;;;;;;-0.14;90.87;100241.25;5061459;28;20047;-69
2020/12/06 06:26:40;;;;;;;37.65;25.75;;;;;;;-0.18;91.09;100238.00;5063405;28;20032;-69
2020/12/06 06:29:15;;;;;;;34.85;25.35;;;;;;;-0.14;91.34;100235.19;5034212;28;20114;-69
2020/12/06 06:31:42;;;;;;;38.53;26.00;;;;;;;-0.16;91.54;100243.13;5036325;28;20036;-69
2020/12/06 06:34:08;;;;;;;38.47;26.63;;;;;;;-0.20;91.46;100237.25;5057724;28;20522;-69
2020/12/06 06:36:34;;;;;;;38.40;26.45;;;;;;;-0.19;91.32;100235.44;5067169;28;20036;-69
2020/12/06 06:39:00;;;;;;;44.47;30.27;;;;;;;-0.19;91.60;100232.84;5054828;28;20036;-69
2020/12/06 06:41:25;;;;;;;46.58;31.23;;;;;;;-0.22;91.58;100236.50;5057162;28;20032;-69
2020/12/06 06:43:51;;;;;;;44.20;30.63;;;;;;;-0.23;91.43;100237.44;5043658;28;20044;-69
2020/12/06 06:46:17;;;;;;;41.80;27.13;;;;;;;-0.20;91.89;100242.50;5043248;28;20040;-69
2020/12/06 06:48:47;;;;;;;39.22;26.73;;;;;;;-0.32;91.82;100228.38;5058689;28;20041;-70
2020/12/06 06:51:20;;;;;;;38.35;25.83;;;;;;;-0.17;92.03;100246.69;5038332;28;20071;-70
2020/12/06 06:53:46;;;;;;;37.70;25.23;;;;;;;-0.10;91.58;100252.38;5059008;28;20024;-70
2020/12/06 06:56:12;;;;;;;38.25;27.45;;;;;;;-0.31;91.29;100219.56;5062438;28;20797;-69
2020/12/06 06:58:37;;;;;;;39.28;26.13;;;;;;;-0.26;91.01;100229.75;5056192;28;20321;-70
2020/12/06 07:01:22;;;;;;;36.63;25.02;;;;;;;-0.08;91.42;100248.75;5050960;28;20079;-70
2020/12/06 07:03:51;;;;;;;34.15;25.08;;;;;;;-0.07;91.54;100257.44;5059402;28;20692;-69
2020/12/06 07:06:48;;;;;;;33.63;24.75;;;;;;;-0.06;91.09;100244.22;5061334;28;20051;-68
2020/12/06 07:09:27;;;;;;;35.03;25.10;;;;;;;-0.02;91.41;100237.00;5056055;28;20029;-69
2020/12/06 07:11:54;;;;;;;36.95;26.08;;;;;;;-0.06;91.14;100241.59;5060466;28;20047;-69
2020/12/06 07:14:22;;;;;;;38.60;25.80;;;;;;;-0.12;91.58;100228.03;5042421;28;20032;-69
2020/12/06 07:16:47;;;;;;;35.97;25.10;;;;;;;-0.03;91.41;100246.66;5052790;28;20032;-69
2020/12/06 07:19:13;;;;;;;36.22;26.13;;;;;;;0.02;91.77;100245.50;5041247;28;20044;-69
2020/12/06 07:21:38;;;;;;;36.08;26.02;;;;;;;0.04;91.42;100246.25;5060148;28;20040;-69
2020/12/06 07:24:04;;;;;;;43.03;27.85;;;;;;;0.02;91.47;100246.34;5052131;28;20033;-69
2020/12/06 07:26:33;;;;;;;39.63;26.95;;;;;;;0.04;92.08;100246.25;5059824;28;20517;-69
2020/12/06 07:28:58;;;;;;;43.50;28.70;;;;;;;-0.17;91.98;100207.34;5039989;28;20048;-69
2020/12/06 07:31:24;;;;;;;41.05;28.50;;;;;;;0.08;92.22;100247.72;5027891;28;20027;-69
2020/12/06 07:33:50;;;;;;;39.90;27.42;;;;;;;0.09;92.00;100257.28;5060806;28;20082;-69
2020/12/06 07:36:16;;;;;;;41.22;28.50;;;;;;;-0.37;91.84;100171.94;5061376;28;20158;-69
2020/12/06 07:38:41;;;;;;;41.05;28.33;;;;;;;0.11;92.39;100251.00;5055277;28;20041;-69
2020/12/06 07:41:07;;;;;;;43.28;28.80;;;;;;;0.12;92.44;100249.22;5060333;28;20036;-70
2020/12/06 07:43:32;;;;;;;41.30;28.45;;;;;;;0.14;92.41;100244.72;5073658;28;20041;-69
2020/12/06 07:46:20;;;;;;;40.17;27.88;;;;;;;0.08;92.27;100234.59;5060691;28;20033;-69
2020/12/06 07:48:46;;;;;;;40.45;28.25;;;;;;;0.21;91.97;100247.78;5037338;28;20044;-69
2020/12/06 07:51:11;;;;;;;42.22;28.58;;;;;;;0.00;92.10;100208.91;5054553;28;20078;-70
2020/12/06 07:53:49;;;;;;;36.33;26.55;;;;;;;0.23;92.07;100244.09;5057451;28;20043;-68
2020/12/06 07:56:24;;;;;;;39.90;26.75;;;;;;;0.20;92.17;100251.34;5058207;28;20449;-70
2020/12/06 07:59:07;;;;;;;36.63;27.17;;;;;;;0.25;91.68;100257.13;5063789;28;20048;-68
2020/12/06 08:01:33;;;;;;;34.42;25.60;;;;;;;0.25;91.71;100250.09;5046989;28;20509;-70
2020/12/06 08:03:58;;;;;;;37.72;26.60;;;;;;;-0.02;91.36;100198.50;5064150;28;20041;-68
2020/12/06 08:06:26;;;;;;;39.50;25.80;;;;;;;0.25;91.90;100239.59;5063281;28;20529;-69
2020/12/06 08:08:54;;;;;;;38.42;27.33;;;;;;;0.30;91.76;100228.78;5063030;28;20040;-69
2020/12/06 08:11:19;;;;;;;39.40;26.77;;;;;;;0.27;91.15;100231.63;5067637;28;20067;-69
2020/12/06 08:13:50;;;;;;;36.55;26.67;;;;;;;0.16;91.77;100200.84;5081993;28;20433;-68
2020/12/06 08:16:17;;;;;;;39.45;26.90;;;;;;;0.35;91.72;100225.84;5057417;28;20024;-68
2020/12/06 08:18:43;;;;;;;38.83;26.88;;;;;;;0.35;91.27;100233.72;5087082;28;20048;-68
2020/12/06 08:21:08;;;;;;;40.78;27.27;;;;;;;0.39;91.84;100233.44;5046113;28;20047;-68
2020/12/06 08:23:39;;;;;;;37.28;27.17;;;;;;;0.43;91.29;100227.03;5066792;28;20113;-69
2020/12/06 08:26:05;;;;;;;39.33;27.80;;;;;;;0.47;91.27;100227.69;5074229;28;20044;-69
2020/12/06 08:28:31;;;;;;;39.70;27.67;;;;;;;0.51;91.13;100250.13;5049347;28;20036;-69
2020/12/06 08:30:56;;;;;;;35.58;25.58;;;;;;;0.57;90.67;100247.13;5059763;28;20043;-69
2020/12/06 08:33:26;;;;;;;34.78;25.17;;;;;;;0.06;90.75;100177.00;5064556;28;20024;-69
2020/12/06 08:35:52;;;;;;;37.13;26.52;;;;;;;0.60;91.14;100260.06;5065267;28;20055;-69
2020/12/06 08:38:21;;;;;;;37.65;26.77;;;;;;;0.65;90.70;100256.25;5074280;28;20470;-69
2020/12/06 08:41:06;;;;;;;37.25;27.08;;;;;;;0.59;90.72;100244.38;5065152;28;20536;-69
2020/12/06 08:43:48;;;;;;;34.35;25.05;;;;;;;0.70;90.93;100246.28;5058126;28;20037;-68
2020/12/06 08:46:24;;;;;;;35.97;26.05;;;;;;;0.69;90.92;100242.81;5060327;28;20028;-69
2020/12/06 08:48:51;;;;;;;37.08;26.45;;;;;;;0.77;90.34;100255.41;5050878;28;20032;-69
2020/12/06 08:51:26;;;;;;;36.40;26.58;;;;;;;0.83;90.73;100260.28;5063158;28;20032;-69
2020/12/06 08:53:52;;;;;;;36.13;26.77;;;;;;;0.85;90.86;100245.25;5061784;28;20047;-69
2020/12/06 08:56:30;;;;;;;35.53;26.73;;;;;;;0.93;90.75;100244.72;5064882;28;20082;-69
2020/12/06 08:58:55;;;;;;;34.47;25.67;;;;;;;0.79;90.09;100231.69;5059187;28;20490;-69
2020/12/06 09:01:21;;;;;;;34.35;25.17;;;;;;;0.98;89.68;100257.53;5054177;28;20040;-69
2020/12/06 09:03:46;;;;;;;36.67;25.88;;;;;;;1.05;89.58;100246.50;5057717;28;20529;-70
2020/12/06 09:06:16;;;;;;;34.08;26.20;;;;;;;1.04;89.45;100249.22;5063067;28;20124;-70
2020/12/06 09:08:41;;;;;;;35.95;26.58;;;;;;;1.04;89.94;100244.81;5061206;28;20041;-70
2020/12/06 09:11:15;;;;;;;37.35;26.67;;;;;;;1.03;89.99;100245.75;5036198;28;20052;-70
2020/12/06 09:13:41;;;;;;;34.35;25.65;;;;;;;1.09;89.72;100244.50;5063168;28;20455;-69
2020/12/06 09:16:06;;;;;;;36.38;26.80;;;;;;;1.12;89.61;100232.91;5063851;28;20258;-70
2020/12/06 09:18:32;;;;;;;37.22;26.88;;;;;;;1.15;89.35;100241.44;5060671;28;20063;-69
2020/12/06 09:20:57;;;;;;;39.05;27.23;;;;;;;1.08;89.71;100229.66;5061414;28;20052;-71
2020/12/06 09:23:23;;;;;;;37.45;26.77;;;;;;;0.63;89.86;100153.94;5058081;28;20052;-70
2020/12/06 09:25:48;;;;;;;38.72;27.75;;;;;;;1.16;89.74;100240.47;5060708;28;20059;-70
2020/12/06 09:28:14;;;;;;;39.22;27.60;;;;;;;1.14;89.50;100239.78;5062260;28;20040;-69
2020/12/06 09:30:40;;;;;;;37.58;26.35;;;;;;;1.20;89.60;100246.38;5069225;28;21090;-69
2020/12/06 09:33:06;;;;;;;38.22;27.75;;;;;;;1.19;89.98;100253.41;5058060;28;24220;-69
2020/12/06 09:35:31;;;;;;;35.60;26.15;;;;;;;1.06;90.15;100242.94;5062505;28;20538;-69
2020/12/06 09:37:57;;;;;;;38.97;27.20;;;;;;;1.10;89.79;100230.41;5059891;28;20086;-70
2020/12/06 09:40:22;;;;;;;37.97;26.50;;;;;;;1.22;89.45;100249.75;5057065;28;20048;-69
2020/12/06 09:42:48;;;;;;;36.00;26.85;;;;;;;1.23;89.79;100243.50;5059325;28;20039;-69
2020/12/06 09:45:13;;;;;;;37.75;27.50;;;;;;;1.31;89.78;100243.84;5065887;28;20492;-70
2020/12/06 09:47:39;;;;;;;39.15;27.17;;;;;;;1.32;89.43;100239.41;5063478;28;20048;-69
2020/12/06 09:50:04;;;;;;;38.83;25.40;;;;;;;1.35;89.93;100242.69;5065260;28;20388;-69
2020/12/06 09:52:30;;;;;;;38.58;28.30;;;;;;;1.38;89.72;100242.44;5044733;28;20082;-69
2020/12/06 09:54:56;;;;;;;39.42;27.00;;;;;;;1.22;89.35;100213.78;5064669;28;20036;-70
2020/12/06 09:57:22;;;;;;;36.58;26.70;;;;;;;1.50;89.08;100243.38;5057465;28;20029;-70
2020/12/06 09:59:48;;;;;;;35.67;25.48;;;;;;;1.35;88.69;100213.75;5063298;28;20047;-70
2020/12/06 10:02:13;;;;;;;34.67;26.00;;;;;;;1.56;88.85;100249.97;5052818;28;20562;-72
2020/12/06 10:04:39;;;;;;;38.13;25.77;;;;;;;1.19;88.27;100186.88;5066074;28;20032;-70
2020/12/06 10:07:04;;;;;;;35.05;25.77;;;;;;;1.60;88.93;100240.94;5064819;28;20502;-70
2020/12/06 10:09:31;;;;;;;35.15;25.33;;;;;;;1.65;88.62;100230.06;5059480;28;20039;-70
2020/12/06 10:11:56;;;;;;;36.00;26.17;;;;;;;1.68;88.36;100222.81;5063330;28;20391;-70
2020/12/06 10:14:22;;;;;;;35.45;25.38;;;;;;;1.73;88.43;100211.94;5061665;28;20452;-70
2020/12/06 10:16:48;;;;;;;35.85;26.50;;;;;;;1.84;88.04;100201.47;5064157;28;20044;-70
2020/12/06 10:19:13;;;;;;;34.25;24.58;;;;;;;1.93;88.08;100193.88;5061493;28;20037;-70
2020/12/06 10:21:39;;;;;;;35.47;26.20;;;;;;;1.99;87.72;100196.88;5057272;28;20573;-70
2020/12/06 10:24:05;;;;;;;33.15;24.50;;;;;;;2.07;87.79;100203.34;5044765;28;20482;-70
2020/12/06 10:26:30;;;;;;;33.42;25.13;;;;;;;1.53;87.10;100100.28;5065635;28;20043;-71
2020/12/06 10:28:58;;;;;;;34.17;25.60;;;;;;;1.93;87.23;100168.38;5065477;28;20048;-69
2020/12/06 10:31:23;;;;;;;39.65;24.77;;;;;;;2.08;87.42;100199.78;5066105;28;20667;-69
2020/12/06 10:33:49;;;;;;;34.05;24.60;;;;;;;2.06;87.58;100194.63;5062136;28;20047;-69
2020/12/06 10:36:14;;;;;;;33.55;25.08;;;;;;;2.02;87.42;100189.72;5077584;28;20052;-69
2020/12/06 10:38:40;;;;;;;35.08;24.80;;;;;;;2.02;87.51;100193.19;5062564;28;20040;-70
2020/12/06 10:41:05;;;;;;;32.38;25.08;;;;;;;2.07;87.09;100196.31;5061883;28;20407;-69
2020/12/06 10:43:31;;;;;;;34.72;25.15;;;;;;;2.01;87.46;100185.41;5070199;28;20078;-69
2020/12/06 10:45:56;;;;;;;35.08;25.30;;;;;;;2.09;87.22;100201.47;5070939;28;20036;-69
2020/12/06 10:48:22;;;;;;;36.50;26.92;;;;;;;2.08;88.04;100191.88;5065255;28;20392;-69
2020/12/06 10:50:53;;;;;;;38.05;27.05;;;;;;;2.07;87.55;100191.06;5064406;28;20110;-68
2020/12/06 10:53:19;;;;;;;36.30;25.92;;;;;;;2.02;87.81;100172.13;5064898;28;20271;-69
2020/12/06 10:55:44;;;;;;;35.33;25.60;;;;;;;2.18;87.70;100189.41;5062674;28;20162;-69
2020/12/06 10:58:10;;;;;;;35.15;26.15;;;;;;;2.19;87.60;100191.09;5063354;28;20086;-69
2020/12/06 11:00:36;;;;;;;34.65;25.60;;;;;;;2.23;87.16;100182.84;5066766;28;20024;-69
2020/12/06 11:03:01;;;;;;;36.35;26.02;;;;;;;2.25;87.08;100183.56;5065475;28;20037;-69
2020/12/06 11:05:27;;;;;;;32.90;24.75;;;;;;;2.31;86.72;100174.38;5058845;28;20040;-69
2020/12/06 11:07:52;;;;;;;39.80;27.77;;;;;;;2.30;87.26;100191.13;5064742;28;20679;-70
2020/12/06 11:10:18;;;;;;;39.35;27.42;;;;;;;2.31;87.18;100184.91;5066698;28;20059;-69
2020/12/06 11:12:43;;;;;;;36.83;24.45;;;;;;;2.39;86.72;100193.03;5064969;28;20037;-69